Time;durP1;ratioP1;P1;durP2;ratioP2;P2;SDS_P1;SDS_P2;PMS_P1;PMS_P2;Temp;Humidity;BMP_temperature;BMP_pressure;BME280_temperature;BME280_humidity;BME280_pressure;Samples;Min_cycle;Max_cycle;Signal;HPM_P1;HPM_P2
2022/12/05 00:01:55;;;;;;;29.57;18.90;;;5.70;97.00;;;;;;4994259;28;20460;-76
2022/12/05 00:04:22;;;;;;;29.40;20.30;;;5.70;97.00;;;;;;4993989;28;20491;-76
2022/12/05 00:06:49;;;;;;;30.53;19.03;;;5.70;97.10;;;;;;4994887;28;20492;-76
2022/12/05 00:09:15;;;;;;;30.77;20.53;;;5.70;97.10;;;;;;4996845;28;20818;-76
2022/12/05 00:11:46;;;;;;;31.30;18.40;;;5.70;97.10;;;;;;4998033;28;20446;-76
2022/12/05 00:14:13;;;;;;;29.20;18.80;;;5.70;97.10;;;;;;4998027;28;20476;-76
2022/12/05 00:16:42;;;;;;;30.47;19.67;;;5.70;97.10;;;;;;4997972;28;20457;-77
2022/12/05 00:19:13;;;;;;;32.33;22.10;;;5.70;97.10;;;;;;4997710;28;20458;-76
2022/12/05 00:21:40;;;;;;;45.63;26.33;;;5.70;97.10;;;;;;4998070;28;20439;-76
2022/12/05 00:24:09;;;;;;;42.70;27.80;;;5.70;97.20;;;;;;4997766;28;20495;-76
2022/12/05 00:26:36;;;;;;;52.70;29.43;;;5.70;97.20;;;;;;4997623;28;20559;-76
2022/12/05 00:29:03;;;;;;;32.47;20.50;;;5.70;97.30;;;;;;4997889;28;20456;-76
2022/12/05 00:31:30;;;;;;;33.27;21.03;;;5.70;97.30;;;;;;4997691;28;20842;-76
2022/12/05 00:34:00;;;;;;;34.80;24.10;;;5.70;97.40;;;;;;4997643;28;20842;-76
2022/12/05 00:36:34;;;;;;;38.50;24.20;;;5.70;97.40;;;;;;4997512;28;20898;-76
2022/12/05 00:39:03;;;;;;;32.07;20.27;;;5.70;97.40;;;;;;4997635;28;20484;-76
2022/12/05 00:41:30;;;;;;;37.40;21.20;;;5.70;97.40;;;;;;4997686;28;20449;-77
2022/12/05 00:43:59;;;;;;;34.87;21.83;;;5.70;97.30;;;;;;4997394;28;20484;-76
2022/12/05 00:46:28;;;;;;;29.60;21.47;;;5.70;97.40;;;;;;4997609;28;20458;-76
2022/12/05 00:48:55;;;;;;;31.40;20.50;;;5.70;97.30;;;;;;4997439;28;20806;-76
2022/12/05 00:51:25;;;;;;;35.33;20.20;;;5.70;97.40;;;;;;4997396;28;20456;-76
2022/12/05 00:53:54;;;;;;;32.00;21.23;;;5.70;97.40;;;;;;4997161;28;20486;-76
2022/12/05 00:56:23;;;;;;;34.60;22.93;;;5.70;97.40;;;;;;4997088;28;20456;-76
2022/12/05 00:58:51;;;;;;;32.60;20.90;;;5.70;97.30;;;;;;4996943;28;20452;-76
2022/12/05 01:01:20;;;;;;;29.73;20.73;;;5.70;97.30;;;;;;4997330;28;20441;-76
2022/12/05 01:03:47;;;;;;;32.40;20.07;;;5.70;97.30;;;;;;4997029;28;20494;-76
2022/12/05 01:06:15;;;;;;;28.77;18.77;;;5.70;97.30;;;;;;4997128;28;20456;-76
2022/12/05 01:08:43;;;;;;;32.20;22.40;;;5.70;97.30;;;;;;4996997;28;20466;-76
2022/12/05 01:11:14;;;;;;;29.60;18.30;;;5.70;97.30;;;;;;4997090;28;20447;-76
2022/12/05 01:13:41;;;;;;;32.83;21.47;;;5.70;97.40;;;;;;4996585;28;20470;-76
2022/12/05 01:16:13;;;;;;;28.60;19.57;;;5.70;97.40;;;;;;4997819;28;20432;-76
2022/12/05 01:18:40;;;;;;;31.23;18.70;;;5.70;97.40;;;;;;4996997;28;20438;-76
2022/12/05 01:21:08;;;;;;;34.23;21.33;;;5.70;97.30;;;;;;4995653;28;20461;-76
2022/12/05 01:23:34;;;;;;;29.50;19.80;;;5.70;97.30;;;;;;4996767;28;20490;-76
2022/12/05 01:26:06;;;;;;;36.07;21.60;;;5.70;97.30;;;;;;4997037;28;20529;-76
2022/12/05 01:28:34;;;;;;;35.20;20.90;;;5.70;97.30;;;;;;4996460;28;20444;-76
2022/12/05 01:31:05;;;;;;;30.70;19.87;;;5.70;97.30;;;;;;4996554;28;20458;-76
2022/12/05 01:33:32;;;;;;;26.77;18.60;;;5.70;97.30;;;;;;4996243;28;20515;-76
2022/12/05 01:35:59;;;;;;;31.10;19.47;;;5.70;97.40;;;;;;4996889;28;20450;-76
2022/12/05 01:38:26;;;;;;;30.53;19.57;;;5.70;97.40;;;;;;4996637;28;20497;-77
2022/12/05 01:41:00;;;;;;;30.40;19.00;;;5.70;97.40;;;;;;4996420;28;20454;-75
2022/12/05 01:43:27;;;;;;;30.37;19.17;;;5.70;97.40;;;;;;4995970;28;20927;-76
2022/12/05 01:45:55;;;;;;;28.63;18.47;;;5.70;97.40;;;;;;4996729;28;20455;-76
2022/12/05 01:48:25;;;;;;;27.90;18.83;;;5.70;97.40;;;;;;4995978;28;20977;-76
2022/12/05 01:50:52;;;;;;;28.43;17.80;;;5.70;97.50;;;;;;4996052;28;20815;-77
2022/12/05 01:53:21;;;;;;;32.00;18.77;;;5.70;97.50;;;;;;4996291;28;20814;-76
2022/12/05 01:55:50;;;;;;;27.00;17.47;;;5.70;97.40;;;;;;4996392;28;20455;-77
2022/12/05 01:58:17;;;;;;;30.83;18.87;;;5.70;97.40;;;;;;4996148;28;20536;-77
2022/12/05 02:00:44;;;;;;;31.23;19.47;;;5.80;97.40;;;;;;4997240;28;20443;-76
2022/12/05 02:03:18;;;;;;;30.33;18.60;;;5.80;97.40;;;;;;4996061;28;20460;-76
2022/12/05 02:05:49;;;;;;;29.80;19.03;;;5.80;97.40;;;;;;4996031;28;20470;-76
2022/12/05 02:08:16;;;;;;;28.83;20.20;;;5.80;97.40;;;;;;4996032;28;20440;-76
2022/12/05 02:10:46;;;;;;;35.13;20.30;;;5.80;97.30;;;;;;4995898;28;20825;-76
2022/12/05 02:13:31;;;;;;;32.70;18.50;;;5.80;97.30;;;;;;4995799;28;20461;-75
2022/12/05 02:16:03;;;;;;;27.30;19.07;;;5.80;97.30;;;;;;4995920;28;20436;-76
2022/12/05 02:18:45;;;;;;;35.30;20.97;;;5.80;97.30;;;;;;4995512;28;20920;-76
2022/12/05 02:21:41;;;;;;;30.50;20.37;;;5.80;97.30;;;;;;4996191;28;20450;-76
2022/12/05 02:24:40;;;;;;;28.23;19.30;;;5.80;97.30;;;;;;4995512;28;20498;-75
2022/12/05 02:27:27;;;;;;;34.47;20.03;;;5.80;97.30;;;;;;4995261;28;20461;-76
2022/12/05 02:30:06;;;;;;;34.73;19.80;;;5.80;97.40;;;;;;4995572;28;20440;-75
2022/12/05 02:33:00;;;;;;;28.60;18.87;;;5.70;97.30;;;;;;4995323;28;20436;-75
2022/12/05 02:35:39;;;;;;;32.03;19.07;;;5.80;97.40;;;;;;4985050;28;20481;-75
2022/12/05 02:38:18;;;;;;;27.33;17.60;;;5.80;97.50;;;;;;4995411;28;20431;-75
2022/12/05 02:40:57;;;;;;;26.63;18.53;;;5.80;97.50;;;;;;4995336;28;20442;-75
2022/12/05 02:43:32;;;;;;;31.97;20.77;;;5.80;97.50;;;;;;4995108;28;20552;-75
2022/12/05 02:46:03;;;;;;;32.90;19.00;;;5.80;97.60;;;;;;4995211;28;20477;-75
2022/12/05 02:48:33;;;;;;;28.83;18.30;;;5.80;97.60;;;;;;4995223;28;20435;-76
2022/12/05 02:51:02;;;;;;;26.20;17.43;;;5.70;97.60;;;;;;4995281;28;20447;-76
2022/12/05 02:53:31;;;;;;;26.33;18.93;;;5.80;97.70;;;;;;4994684;28;20473;-76
2022/12/05 02:55:58;;;;;;;26.23;18.60;;;5.80;97.70;;;;;;4995071;28;20447;-76
2022/12/05 02:58:30;;;;;;;27.73;17.80;;;5.80;97.80;;;;;;4995090;28;20432;-76
2022/12/05 03:00:59;;;;;;;26.10;19.00;;;5.80;97.80;;;;;;4994775;28;20442;-76
2022/12/05 03:03:26;;;;;;;28.33;19.43;;;5.80;97.90;;;;;;4994929;28;20476;-76
2022/12/05 03:06:00;;;;;;;27.67;18.93;;;5.80;97.90;;;;;;4994790;28;20478;-77
2022/12/05 03:08:32;;;;;;;30.87;19.30;;;5.80;97.90;;;;;;4994769;28;20480;-77
2022/12/05 03:11:00;;;;;;;28.43;18.47;;;5.80;97.90;;;;;;4994638;28;20472;-76
2022/12/05 03:13:29;;;;;;;36.03;20.70;;;5.70;97.90;;;;;;4994252;28;20486;-77
2022/12/05 03:15:59;;;;;;;28.07;19.57;;;5.70;97.90;;;;;;4994570;28;20462;-77
2022/12/05 03:18:32;;;;;;;28.47;19.00;;;5.80;98.00;;;;;;4994648;28;20452;-77
2022/12/05 03:21:03;;;;;;;31.10;20.00;;;5.80;98.00;;;;;;4994880;28;20446;-77
2022/12/05 03:23:33;;;;;;;29.70;18.73;;;5.80;97.90;;;;;;4994539;28;20471;-77
2022/12/05 03:26:10;;;;;;;29.73;18.77;;;5.80;98.00;;;;;;4994217;28;20541;-77
2022/12/05 03:28:48;;;;;;;28.70;19.63;;;5.80;98.00;;;;;;4994605;28;20847;-77
2022/12/05 03:31:22;;;;;;;28.13;20.20;;;5.80;98.00;;;;;;4994166;28;20923;-77
2022/12/05 03:33:55;;;;;;;25.33;19.03;;;5.80;98.10;;;;;;4994256;28;20497;-76
2022/12/05 03:36:26;;;;;;;27.10;18.80;;;5.80;98.10;;;;;;4997850;28;20855;-76
2022/12/05 03:39:00;;;;;;;26.87;18.77;;;5.80;98.10;;;;;;5013978;28;20439;-77
2022/12/05 03:41:34;;;;;;;28.07;18.60;;;5.80;98.20;;;;;;5013905;28;20441;-77
2022/12/05 03:44:08;;;;;;;25.47;18.10;;;5.80;98.20;;;;;;5013205;28;20478;-77
2022/12/05 03:46:40;;;;;;;29.20;17.83;;;5.80;98.20;;;;;;5013874;28;20472;-77
2022/12/05 03:49:13;;;;;;;27.80;20.43;;;5.80;98.10;;;;;;5013564;28;20816;-77
2022/12/05 03:51:45;;;;;;;25.77;16.87;;;5.80;98.10;;;;;;5002699;28;20465;-76
2022/12/05 03:54:19;;;;;;;24.63;18.03;;;5.80;98.10;;;;;;4994058;28;20483;-76
2022/12/05 03:56:52;;;;;;;30.63;21.20;;;5.70;98.10;;;;;;4993648;28;20956;-76
2022/12/05 03:59:26;;;;;;;25.10;19.27;;;5.80;98.20;;;;;;4994128;28;20440;-76
2022/12/05 04:01:55;;;;;;;29.67;18.27;;;5.80;98.10;;;;;;4994090;28;20439;-76
2022/12/05 04:04:29;;;;;;;29.83;19.57;;;5.70;98.10;;;;;;4994004;28;20856;-76
2022/12/05 04:06:57;;;;;;;27.93;18.33;;;5.70;98.00;;;;;;4994125;28;20460;-76
2022/12/05 04:09:27;;;;;;;31.20;18.07;;;5.80;98.10;;;;;;4993931;28;20461;-76
2022/12/05 04:12:01;;;;;;;26.63;18.87;;;5.80;98.00;;;;;;4993684;28;20805;-76
2022/12/05 04:14:32;;;;;;;25.90;17.60;;;5.70;98.30;;;;;;4993895;28;20469;-76
2022/12/05 04:17:02;;;;;;;23.67;18.10;;;5.80;98.00;;;;;;4993975;28;20481;-77
2022/12/05 04:22:17;;;;;;;28.17;17.33;;;5.70;97.90;;;;;;4993341;28;20959;-76
2022/12/05 04:27:34;;;;;;;26.60;18.60;;;5.70;97.90;;;;;;4993938;28;20900;-77
2022/12/05 04:30:05;;;;;;;28.53;18.40;;;5.70;97.90;;;;;;4993853;28;20429;-77
2022/12/05 04:32:40;;;;;;;29.63;18.30;;;5.70;97.90;;;;;;4993509;28;21038;-76
2022/12/05 04:35:17;;;;;;;25.63;18.27;;;5.60;97.90;;;;;;4993718;28;20518;-77
2022/12/05 04:37:48;;;;;;;29.77;18.63;;;5.70;97.80;;;;;;4993828;28;20456;-76
2022/12/05 04:40:21;;;;;;;26.47;18.00;;;5.70;97.80;;;;;;4993774;28;20762;-76
2022/12/05 04:42:51;;;;;;;29.53;19.63;;;5.60;97.70;;;;;;4993705;28;20434;-76
2022/12/05 04:45:20;;;;;;;27.83;18.80;;;5.60;97.70;;;;;;4993475;28;20487;-76
2022/12/05 04:47:50;;;;;;;25.20;18.10;;;5.60;97.60;;;;;;4993308;28;20971;-76
2022/12/05 04:50:20;;;;;;;30.33;19.43;;;5.60;97.50;;;;;;4993508;28;20970;-76
2022/12/05 04:52:55;;;;;;;30.53;18.97;;;5.60;97.50;;;;;;4993595;28;20458;-77
2022/12/05 04:55:26;;;;;;;30.00;18.80;;;5.60;97.40;;;;;;4996213;28;20482;-76
2022/12/05 04:58:01;;;;;;;26.60;18.83;;;5.60;97.30;;;;;;4997256;28;20447;-77
2022/12/05 05:00:29;;;;;;;28.63;20.20;;;5.60;97.30;;;;;;4996991;28;20915;-76
2022/12/05 05:03:01;;;;;;;33.00;19.87;;;5.60;97.20;;;;;;4997132;28;20460;-77
2022/12/05 05:05:37;;;;;;;28.40;19.17;;;5.50;97.10;;;;;;4996986;28;20482;-77
2022/12/05 05:08:04;;;;;;;37.03;21.47;;;5.50;97.00;;;;;;4997097;28;20436;-77
2022/12/05 05:10:36;;;;;;;28.07;18.93;;;5.50;96.90;;;;;;4997257;28;20443;-77
2022/12/05 05:13:02;;;;;;;30.73;19.00;;;5.50;96.90;;;;;;4996998;28;20436;-77
2022/12/05 05:15:29;;;;;;;31.63;20.70;;;5.50;96.90;;;;;;4996552;28;20973;-77
2022/12/05 05:17:56;;;;;;;29.27;17.93;;;5.50;96.90;;;;;;4997421;28;20451;-77
2022/12/05 05:20:25;;;;;;;27.43;19.07;;;5.50;96.90;;;;;;4997399;28;20984;-76
2022/12/05 05:22:57;;;;;;;26.47;17.80;;;5.50;96.80;;;;;;4997484;28;20451;-76
2022/12/05 05:25:25;;;;;;;24.27;17.43;;;5.40;96.70;;;;;;4996836;28;20496;-76
2022/12/05 05:27:53;;;;;;;24.13;17.63;;;5.40;96.70;;;;;;4997301;28;20458;-76
2022/12/05 05:30:21;;;;;;;29.43;19.23;;;5.40;96.60;;;;;;4996744;28;20955;-76
2022/12/05 05:32:49;;;;;;;29.13;19.37;;;5.40;96.60;;;;;;4996985;28;20455;-77
2022/12/05 05:35:16;;;;;;;32.13;19.63;;;5.40;96.50;;;;;;4997409;28;20474;-77
2022/12/05 05:37:43;;;;;;;26.60;18.80;;;5.40;96.80;;;;;;4996900;28;20453;-76
2022/12/05 05:40:14;;;;;;;27.50;19.40;;;5.40;96.50;;;;;;4996794;28;20477;-76
2022/12/05 05:42:43;;;;;;;32.73;18.50;;;5.30;96.40;;;;;;4996863;28;20440;-76
2022/12/05 05:45:11;;;;;;;30.50;19.30;;;5.40;96.40;;;;;;4997008;28;20531;-76
2022/12/05 05:47:38;;;;;;;27.60;18.33;;;5.30;96.30;;;;;;4996857;28;20441;-77
2022/12/05 05:50:08;;;;;;;29.03;19.83;;;5.30;96.20;;;;;;4997204;28;20464;-76
2022/12/05 05:52:36;;;;;;;28.17;18.70;;;5.30;96.20;;;;;;4996850;28;20441;-77
2022/12/05 05:55:04;;;;;;;28.40;19.83;;;5.20;96.20;;;;;;4996425;28;20471;-76
2022/12/05 05:57:32;;;;;;;30.60;18.50;;;5.20;96.20;;;;;;4997075;28;20454;-77
2022/12/05 05:59:59;;;;;;;33.47;20.60;;;5.20;96.20;;;;;;4996812;28;20456;-77
2022/12/05 06:02:26;;;;;;;28.13;19.03;;;5.20;96.20;;;;;;4996590;28;20973;-77
2022/12/05 06:04:53;;;;;;;29.17;19.37;;;5.20;96.20;;;;;;4995929;28;21033;-77
2022/12/05 06:07:19;;;;;;;27.77;19.43;;;5.20;96.20;;;;;;4995464;28;20435;-77
2022/12/05 06:09:46;;;;;;;26.10;16.97;;;5.10;96.10;;;;;;4996636;28;20447;-77
2022/12/05 06:12:19;;;;;;;30.27;18.83;;;5.10;96.10;;;;;;4996559;28;20458;-77
2022/12/05 06:14:49;;;;;;;24.40;17.37;;;5.10;96.10;;;;;;4996240;28;20476;-77
2022/12/05 06:17:16;;;;;;;32.80;21.83;;;5.10;96.10;;;;;;4995900;28;20442;-77
2022/12/05 06:19:43;;;;;;;28.40;19.13;;;5.10;96.10;;;;;;4996060;28;20478;-77
2022/12/05 06:22:09;;;;;;;38.70;23.33;;;5.10;96.10;;;;;;4995849;28;20451;-77
2022/12/05 06:24:36;;;;;;;32.73;19.83;;;5.10;96.20;;;;;;4995745;28;20875;-77
2022/12/05 06:27:03;;;;;;;31.20;20.37;;;5.10;96.20;;;;;;4995345;28;20508;-77
2022/12/05 06:29:30;;;;;;;29.80;19.30;;;5.00;96.20;;;;;;4995522;28;20456;-77
2022/12/05 06:31:58;;;;;;;26.77;18.23;;;5.00;96.30;;;;;;4995803;28;20454;-77
2022/12/05 06:34:24;;;;;;;24.37;18.37;;;5.00;96.30;;;;;;4994844;28;20487;-76
2022/12/05 06:36:51;;;;;;;27.90;18.93;;;4.90;96.40;;;;;;4995688;28;20452;-77
2022/12/05 06:39:18;;;;;;;28.83;19.40;;;4.90;96.40;;;;;;4995634;28;20463;-77
2022/12/05 06:41:44;;;;;;;28.67;18.97;;;4.90;96.50;;;;;;4995640;28;20453;-77
2022/12/05 06:44:11;;;;;;;24.80;17.93;;;4.90;96.60;;;;;;4995401;28;20462;-76
2022/12/05 06:46:38;;;;;;;26.80;17.07;;;4.90;96.60;;;;;;4995620;28;20484;-76
2022/12/05 06:49:06;;;;;;;28.80;18.83;;;4.80;96.60;;;;;;4995108;28;20960;-77
2022/12/05 06:51:32;;;;;;;24.33;16.40;;;4.80;97.00;;;;;;4995386;28;20445;-77
2022/12/05 06:53:59;;;;;;;20.33;14.90;;;4.80;96.70;;;;;;4995249;28;20827;-77
2022/12/05 06:56:26;;;;;;;29.40;18.50;;;4.80;96.70;;;;;;4995050;28;20474;-77
2022/12/05 06:58:54;;;;;;;30.77;19.73;;;4.80;96.70;;;;;;4996079;28;20447;-77
2022/12/05 07:01:41;;;;;;;32.63;19.40;;;4.80;96.80;;;;;;4994700;28;20974;-77
2022/12/05 07:04:12;;;;;;;23.70;17.83;;;4.80;96.80;;;;;;4994681;28;20838;-75
2022/12/05 07:06:41;;;;;;;31.20;18.57;;;4.80;96.80;;;;;;4994714;28;20479;-77
2022/12/05 07:09:08;;;;;;;28.27;17.53;;;4.80;96.80;;;;;;4995000;28;20478;-77
2022/12/05 07:11:35;;;;;;;25.87;18.07;;;4.70;96.80;;;;;;4994987;28;20452;-77
2022/12/05 07:14:02;;;;;;;32.20;20.03;;;4.70;96.80;;;;;;4994969;28;20472;-77
2022/12/05 07:16:29;;;;;;;25.83;17.53;;;4.70;96.80;;;;;;4995021;28;20452;-77
2022/12/05 07:18:56;;;;;;;25.50;18.63;;;4.70;96.80;;;;;;4993885;28;20447;-77
2022/12/05 07:21:24;;;;;;;27.10;18.40;;;4.70;96.80;;;;;;4994870;28;20449;-77
2022/12/05 07:23:51;;;;;;;24.73;17.23;;;4.70;96.80;;;;;;4994677;28;20476;-77
2022/12/05 07:26:20;;;;;;;27.73;18.73;;;4.70;96.80;;;;;;4994572;28;20481;-77
2022/12/05 07:28:47;;;;;;;28.70;19.00;;;4.70;96.80;;;;;;4994537;28;20454;-77
2022/12/05 07:31:17;;;;;;;29.13;18.60;;;4.70;96.80;;;;;;4994285;28;20456;-77
2022/12/05 07:33:44;;;;;;;26.00;18.03;;;4.70;96.80;;;;;;4994201;28;21020;-77
2022/12/05 07:36:13;;;;;;;29.07;19.53;;;4.70;96.80;;;;;;4994628;28;20425;-77
2022/12/05 07:38:42;;;;;;;32.53;19.93;;;4.60;96.80;;;;;;4994327;28;20449;-77
2022/12/05 07:41:12;;;;;;;27.77;19.17;;;4.60;96.90;;;;;;4994842;28;20454;-77
2022/12/05 07:43:39;;;;;;;23.37;17.30;;;4.60;96.90;;;;;;4994518;28;20478;-77
2022/12/05 07:46:07;;;;;;;26.10;16.40;;;4.60;96.90;;;;;;4994656;28;20479;-77
2022/12/05 07:48:34;;;;;;;26.90;18.63;;;4.60;97.00;;;;;;4994704;28;20458;-77
2022/12/05 07:51:04;;;;;;;23.23;16.67;;;4.60;97.00;;;;;;4993814;28;20982;-77
2022/12/05 07:53:32;;;;;;;24.53;17.93;;;4.60;97.00;;;;;;4994347;28;20819;-76
2022/12/05 07:56:01;;;;;;;28.37;18.63;;;4.50;97.00;;;;;;4994063;28;20439;-76
2022/12/05 07:58:28;;;;;;;32.50;19.57;;;4.50;97.00;;;;;;4994619;28;20493;-75
2022/12/05 08:00:55;;;;;;;24.40;16.63;;;4.50;97.10;;;;;;4994315;28;20473;-75
2022/12/05 08:03:22;;;;;;;22.80;17.30;;;4.50;97.10;;;;;;4994320;28;20478;-75
2022/12/05 08:05:49;;;;;;;28.07;18.90;;;4.50;97.20;;;;;;4994200;28;20480;-76
2022/12/05 08:08:15;;;;;;;31.50;19.23;;;4.50;97.20;;;;;;4994478;28;20441;-76
2022/12/05 08:10:42;;;;;;;24.03;17.47;;;4.50;97.20;;;;;;4994179;28;20458;-75
2022/12/05 08:13:10;;;;;;;28.07;18.60;;;4.50;97.30;;;;;;4994150;28;20783;-76
2022/12/05 08:15:37;;;;;;;25.77;17.33;;;4.50;97.20;;;;;;4994166;28;20456;-75
2022/12/05 08:18:04;;;;;;;27.93;17.40;;;4.50;97.30;;;;;;4994135;28;20860;-76
2022/12/05 08:20:30;;;;;;;32.03;21.07;;;4.50;97.30;;;;;;4994519;28;20451;-76
2022/12/05 08:22:57;;;;;;;27.00;18.47;;;4.50;97.30;;;;;;4994115;28;20812;-76
2022/12/05 08:25:24;;;;;;;23.90;17.30;;;4.50;97.30;;;;;;4993898;28;20871;-76
2022/12/05 08:27:51;;;;;;;29.30;19.33;;;4.50;97.30;;;;;;4993915;28;20439;-76
2022/12/05 08:30:19;;;;;;;28.13;18.00;;;4.50;97.30;;;;;;4996634;28;20458;-76
2022/12/05 08:32:46;;;;;;;23.47;17.17;;;4.50;97.40;;;;;;4997659;28;21018;-76
2022/12/05 08:35:13;;;;;;;27.77;17.20;;;4.50;97.40;;;;;;4997500;28;21051;-76
2022/12/05 08:37:39;;;;;;;24.47;17.37;;;4.50;97.40;;;;;;4997891;28;20458;-76
2022/12/05 08:40:07;;;;;;;25.30;17.27;;;4.60;97.40;;;;;;4997809;28;20456;-76
2022/12/05 08:42:34;;;;;;;22.30;17.10;;;4.60;97.40;;;;;;4997755;28;21007;-76
2022/12/05 08:45:01;;;;;;;25.13;18.60;;;4.60;97.40;;;;;;4997682;28;20475;-76
2022/12/05 08:47:29;;;;;;;27.30;17.67;;;4.60;97.40;;;;;;4997576;28;20482;-76
2022/12/05 08:49:55;;;;;;;28.70;18.00;;;4.60;97.70;;;;;;4997563;28;20443;-76
2022/12/05 08:52:22;;;;;;;30.13;20.73;;;4.60;97.40;;;;;;4997521;28;20787;-76
2022/12/05 08:54:49;;;;;;;28.43;18.20;;;4.60;97.30;;;;;;4997712;28;20501;-76
2022/12/05 08:57:16;;;;;;;27.57;17.83;;;4.60;97.40;;;;;;4997651;28;20446;-76
2022/12/05 08:59:42;;;;;;;25.20;16.90;;;4.60;97.40;;;;;;4997465;28;20455;-76
2022/12/05 09:02:11;;;;;;;28.80;17.57;;;4.70;97.40;;;;;;4998176;28;20459;-76
2022/12/05 09:04:39;;;;;;;25.07;17.57;;;4.70;97.40;;;;;;4998064;28;20483;-77
2022/12/05 09:07:07;;;;;;;30.20;19.00;;;4.70;97.30;;;;;;4997129;28;20482;-76
2022/12/05 09:09:34;;;;;;;27.90;19.60;;;4.60;97.30;;;;;;4997234;28;20516;-77
2022/12/05 09:12:02;;;;;;;25.43;19.70;;;4.70;97.30;;;;;;4997162;28;20457;-76
2022/12/05 09:14:31;;;;;;;30.10;19.10;;;4.70;97.30;;;;;;4997160;28;20475;-76
2022/12/05 09:16:59;;;;;;;27.40;19.07;;;4.70;97.30;;;;;;4997078;28;20964;-77
2022/12/05 09:19:27;;;;;;;27.03;19.40;;;4.70;97.30;;;;;;4997102;28;20801;-77
2022/12/05 09:21:57;;;;;;;24.70;17.63;;;4.70;97.30;;;;;;4997987;28;20479;-77
2022/12/05 09:24:24;;;;;;;25.07;18.57;;;4.70;97.30;;;;;;4998291;28;20472;-77
2022/12/05 09:26:51;;;;;;;27.77;19.40;;;4.70;97.30;;;;;;4998524;28;20498;-77
2022/12/05 09:29:18;;;;;;;28.37;18.40;;;4.70;97.30;;;;;;4999617;28;20464;-77
2022/12/05 09:31:46;;;;;;;25.50;18.17;;;4.80;97.30;;;;;;4998919;28;20451;-77
2022/12/05 09:34:14;;;;;;;29.07;18.10;;;4.80;97.30;;;;;;4999288;28;20476;-77
2022/12/05 09:36:41;;;;;;;29.73;19.87;;;4.80;97.30;;;;;;4999086;28;20462;-77
2022/12/05 09:39:10;;;;;;;25.97;18.43;;;4.80;97.30;;;;;;4998959;28;20437;-77
2022/12/05 09:42:07;;;;;;;29.53;19.07;;;4.80;97.20;;;;;;4997463;28;20461;-77
2022/12/05 09:45:16;;;;;;;26.40;18.73;;;4.80;97.20;;;;;;4998880;28;20538;-77
2022/12/05 09:47:49;;;;;;;21.83;16.73;;;4.80;97.20;;;;;;4993314;28;20845;-77
2022/12/05 09:50:21;;;;;;;24.70;16.70;;;4.80;97.10;;;;;;4997576;28;20439;-78
2022/12/05 09:53:02;;;;;;;25.63;17.57;;;4.80;97.20;;;;;;4997875;28;20793;-77
2022/12/05 09:55:41;;;;;;;27.57;18.10;;;4.80;97.20;;;;;;4998204;28;20436;-77
2022/12/05 09:58:29;;;;;;;29.17;17.97;;;4.80;97.10;;;;;;4998100;28;20989;-77
2022/12/05 10:01:03;;;;;;;26.90;17.83;;;4.80;97.20;;;;;;5001190;28;20484;-77
2022/12/05 10:03:37;;;;;;;25.43;18.50;;;4.80;97.20;;;;;;5017332;28;21047;-77
2022/12/05 10:06:15;;;;;;;26.70;18.17;;;4.80;97.20;;;;;;5016755;28;20923;-77
2022/12/05 10:09:07;;;;;;;24.43;16.47;;;4.80;97.60;;;;;;5017245;28;20449;-77
2022/12/05 10:11:41;;;;;;;23.03;16.93;;;4.80;97.20;;;;;;5017180;28;20478;-77
2022/12/05 10:14:19;;;;;;;26.00;17.80;;;4.80;97.20;;;;;;5017544;28;20473;-77
2022/12/05 10:16:50;;;;;;;26.67;18.13;;;4.80;97.20;;;;;;5016921;28;20437;-77
2022/12/05 10:19:23;;;;;;;24.80;18.03;;;4.80;97.20;;;;;;5017431;28;20440;-78
2022/12/05 10:21:53;;;;;;;23.87;16.47;;;4.80;97.20;;;;;;5016429;28;20445;-78
2022/12/05 10:24:27;;;;;;;23.63;17.63;;;4.80;97.30;;;;;;5015680;28;20986;-77
2022/12/05 10:27:00;;;;;;;24.23;17.23;;;4.90;97.40;;;;;;5015364;28;21031;-78
2022/12/05 10:29:31;;;;;;;24.07;17.47;;;4.80;97.40;;;;;;5016240;28;20449;-78
2022/12/05 10:32:04;;;;;;;25.70;18.20;;;4.90;97.50;;;;;;5016013;28;20441;-78
2022/12/05 10:34:35;;;;;;;25.10;17.90;;;4.90;97.50;;;;;;5015777;28;20466;-77
2022/12/05 10:37:10;;;;;;;27.50;18.73;;;4.90;97.50;;;;;;5015646;28;20446;-77
2022/12/05 10:39:38;;;;;;;27.47;18.37;;;4.90;97.50;;;;;;5015617;28;20433;-78
2022/12/05 10:42:12;;;;;;;23.00;18.47;;;5.00;97.60;;;;;;5015941;28;20443;-78
2022/12/05 10:44:39;;;;;;;28.83;18.60;;;5.00;97.60;;;;;;5015501;28;20459;-79
2022/12/05 10:47:06;;;;;;;23.80;17.50;;;5.00;97.60;;;;;;5015566;28;20491;-78
2022/12/05 10:49:34;;;;;;;24.33;17.27;;;5.10;97.60;;;;;;5015527;28;20460;-78
2022/12/05 10:52:02;;;;;;;22.80;17.80;;;5.20;97.60;;;;;;4995736;28;20470;-77
2022/12/05 10:54:32;;;;;;;23.27;18.53;;;5.10;97.60;;;;;;4995262;28;20471;-77
2022/12/05 10:56:58;;;;;;;27.77;20.00;;;5.20;97.50;;;;;;4995215;28;20950;-78
2022/12/05 10:59:45;;;;;;;21.90;18.60;;;5.20;97.40;;;;;;4995490;28;20453;-78
2022/12/05 11:02:21;;;;;;;24.80;17.60;;;5.20;97.50;;;;;;4995655;28;20435;-78
2022/12/05 11:04:48;;;;;;;26.43;18.83;;;5.20;97.50;;;;;;5000793;28;20472;-78
2022/12/05 11:07:26;;;;;;;24.53;19.37;;;5.20;97.50;;;;;;4999721;28;20477;-79
2022/12/05 11:09:53;;;;;;;23.53;19.17;;;5.10;97.50;;;;;;5000733;28;20440;-78
2022/12/05 11:12:24;;;;;;;29.60;20.47;;;5.10;97.50;;;;;;4999859;28;20976;-78
2022/12/05 11:14:58;;;;;;;23.70;18.83;;;5.10;97.50;;;;;;5004730;28;20474;-79
2022/12/05 11:17:29;;;;;;;29.83;19.93;;;5.00;97.50;;;;;;5004311;28;20494;-78
2022/12/05 11:19:56;;;;;;;25.70;19.40;;;5.00;97.60;;;;;;5005845;28;20942;-78
2022/12/05 11:22:31;;;;;;;24.37;18.43;;;5.00;97.70;;;;;;5005050;28;20470;-78
2022/12/05 11:24:58;;;;;;;25.53;20.37;;;5.00;97.80;;;;;;4999934;28;20834;-78
2022/12/05 11:27:28;;;;;;;26.23;20.50;;;5.00;97.90;;;;;;5003727;28;20489;-79
2022/12/05 11:30:00;;;;;;;24.43;18.67;;;5.00;98.00;;;;;;5001549;28;20458;-77
2022/12/05 11:32:28;;;;;;;26.50;19.60;;;5.00;98.00;;;;;;5000535;28;20439;-78
2022/12/05 11:35:04;;;;;;;23.27;18.10;;;5.00;98.00;;;;;;4998243;28;20543;-78
2022/12/05 11:37:35;;;;;;;24.10;19.90;;;5.00;98.00;;;;;;4997614;28;20441;-79
2022/12/05 11:40:12;;;;;;;25.10;19.63;;;5.00;98.10;;;;;;4996406;28;20464;-79
2022/12/05 11:42:53;;;;;;;24.43;18.80;;;5.00;98.00;;;;;;4996196;28;20437;-78
2022/12/05 11:45:35;;;;;;;26.30;20.77;;;4.90;98.10;;;;;;4995864;28;20472;-78
2022/12/05 11:48:20;;;;;;;25.63;18.80;;;4.90;98.20;;;;;;4995196;28;20475;-78
2022/12/05 11:51:02;;;;;;;24.20;19.13;;;5.00;98.30;;;;;;4995898;28;20453;-78
2022/12/05 11:53:46;;;;;;;26.87;20.80;;;5.00;98.40;;;;;;4995579;28;20986;-78
2022/12/05 11:56:29;;;;;;;22.57;19.17;;;5.00;98.50;;;;;;4995417;28;20962;-78
2022/12/05 11:59:08;;;;;;;24.90;18.57;;;5.10;98.70;;;;;;4995586;28;20434;-78
2022/12/05 12:01:50;;;;;;;18.23;16.30;;;5.10;98.70;;;;;;4996078;28;20435;-78
2022/12/05 12:04:50;;;;;;;24.40;18.13;;;5.10;98.70;;;;;;4995178;28;20478;-78
2022/12/05 12:07:36;;;;;;;22.90;18.83;;;5.20;98.70;;;;;;4995137;28;20530;-78
2022/12/05 12:10:14;;;;;;;17.60;14.33;;;5.20;98.60;;;;;;4995363;28;20443;-78
2022/12/05 12:12:53;;;;;;;18.10;14.80;;;5.20;98.60;;;;;;4994757;28;20435;-78
2022/12/05 12:15:51;;;;;;;14.67;13.17;;;5.20;98.50;;;;;;4994578;28;20484;-78
2022/12/05 12:18:33;;;;;;;17.33;14.80;;;5.20;98.40;;;;;;4995228;28;20437;-78
2022/12/05 12:21:17;;;;;;;15.97;13.53;;;5.20;98.40;;;;;;4995255;28;20449;-77
2022/12/05 12:24:02;;;;;;;15.37;12.97;;;5.30;98.50;;;;;;4995246;28;20463;-78
2022/12/05 12:26:40;;;;;;;16.07;14.03;;;5.30;98.30;;;;;;4995364;28;20464;-77
2022/12/05 12:29:15;;;;;;;13.80;12.27;;;5.20;98.20;;;;;;4996453;28;20487;-78
2022/12/05 12:32:04;;;;;;;15.77;13.40;;;5.20;98.10;;;;;;4997841;28;20910;-77
2022/12/05 12:34:53;;;;;;;18.50;13.33;;;5.20;98.10;;;;;;4998354;28;20474;-77
2022/12/05 12:37:30;;;;;;;14.57;12.90;;;5.20;98.20;;;;;;5003245;28;20456;-77
2022/12/05 12:40:06;;;;;;;15.93;13.77;;;5.20;98.30;;;;;;5000997;28;20438;-77
2022/12/05 12:42:45;;;;;;;16.90;14.67;;;5.20;98.30;;;;;;5004678;28;20433;-78
2022/12/05 12:45:25;;;;;;;16.93;15.07;;;5.20;98.30;;;;;;5001839;28;20477;-77
2022/12/05 12:48:12;;;;;;;19.00;15.43;;;5.20;98.30;;;;;;5000917;28;20477;-77
2022/12/05 12:50:44;;;;;;;22.20;16.77;;;5.20;98.30;;;;;;5003972;28;20437;-76
2022/12/05 12:53:40;;;;;;;20.17;17.83;;;5.10;98.20;;;;;;5018964;28;20437;-75
2022/12/05 12:56:19;;;;;;;20.77;17.20;;;5.10;98.20;;;;;;5006821;28;20827;-77
2022/12/05 12:58:54;;;;;;;26.27;19.13;;;5.10;98.20;;;;;;5001406;28;20783;-76
2022/12/05 13:01:30;;;;;;;22.63;17.70;;;5.10;98.30;;;;;;5000971;28;20437;-76
2022/12/05 13:04:03;;;;;;;20.27;17.10;;;5.00;98.30;;;;;;5000584;28;20477;-76